sensor_id;sensor_type;location;lat;lon;timestamp;temperature;humidity
36816;DHT22;71982;52.294;6.760;2023-09-18T00:01:08;17.90;99.90
36816;DHT22;71982;52.294;6.760;2023-09-18T00:03:35;17.90;99.90
36816;DHT22;71982;52.294;6.760;2023-09-18T00:06:02;17.90;99.90
36816;DHT22;71982;52.294;6.760;2023-09-18T00:08:29;17.90;99.90
36816;DHT22;71982;52.294;6.760;2023-09-18T00:10:57;17.90;99.90
36816;DHT22;71982;52.294;6.760;2023-09-18T00:13:26;17.90;99.90
36816;DHT22;71982;52.294;6.760;2023-09-18T00:15:54;18.00;99.90
36816;DHT22;71982;52.294;6.760;2023-09-18T00:18:25;18.00;99.90
36816;DHT22;71982;52.294;6.760;2023-09-18T00:20:55;17.90;99.90
36816;DHT22;71982;52.294;6.760;2023-09-18T00:23:22;17.90;99.90
36816;DHT22;71982;52.294;6.760;2023-09-18T00:25:53;17.90;99.90
36816;DHT22;71982;52.294;6.760;2023-09-18T00:28:21;17.90;99.90
36816;DHT22;71982;52.294;6.760;2023-09-18T00:30:49;17.90;99.90
36816;DHT22;71982;52.294;6.760;2023-09-18T00:33:17;17.90;99.90
36816;DHT22;71982;52.294;6.760;2023-09-18T00:35:48;17.90;99.90
36816;DHT22;71982;52.294;6.760;2023-09-18T00:38:15;17.90;99.90
36816;DHT22;71982;52.294;6.760;2023-09-18T00:40:43;17.90;99.90
36816;DHT22;71982;52.294;6.760;2023-09-18T00:43:11;17.90;99.90
36816;DHT22;71982;52.294;6.760;2023-09-18T00:45:41;17.90;99.90
36816;DHT22;71982;52.294;6.760;2023-09-18T00:48:09;18.00;99.90
36816;DHT22;71982;52.294;6.760;2023-09-18T00:50:37;18.00;99.90
36816;DHT22;71982;52.294;6.760;2023-09-18T00:53:07;18.00;99.90
36816;DHT22;71982;52.294;6.760;2023-09-18T00:55:36;18.00;99.90
36816;DHT22;71982;52.294;6.760;2023-09-18T00:58:06;18.00;99.90
36816;DHT22;71982;52.294;6.760;2023-09-18T01:00:34;18.00;99.90
36816;DHT22;71982;52.294;6.760;2023-09-18T01:03:03;18.00;99.90
36816;DHT22;71982;52.294;6.760;2023-09-18T01:05:32;18.00;99.90
36816;DHT22;71982;52.294;6.760;2023-09-18T01:07:59;18.00;99.90
36816;DHT22;71982;52.294;6.760;2023-09-18T01:10:44;18.00;99.90
36816;DHT22;71982;52.294;6.760;2023-09-18T01:13:19;18.00;99.90
36816;DHT22;71982;52.294;6.760;2023-09-18T01:15:57;18.10;99.90
36816;DHT22;71982;52.294;6.760;2023-09-18T01:18:31;18.10;99.90
36816;DHT22;71982;52.294;6.760;2023-09-18T01:20:57;18.10;99.90
36816;DHT22;71982;52.294;6.760;2023-09-18T01:23:26;18.10;99.90
36816;DHT22;71982;52.294;6.760;2023-09-18T01:25:53;18.10;99.90
36816;DHT22;71982;52.294;6.760;2023-09-18T01:28:20;18.10;99.90
36816;DHT22;71982;52.294;6.760;2023-09-18T01:30:47;18.10;99.90
36816;DHT22;71982;52.294;6.760;2023-09-18T01:33:16;18.10;99.90
36816;DHT22;71982;52.294;6.760;2023-09-18T01:35:49;18.10;99.90
36816;DHT22;71982;52.294;6.760;2023-09-18T01:38:21;18.10;99.90
36816;DHT22;71982;52.294;6.760;2023-09-18T01:40:51;18.10;99.90
36816;DHT22;71982;52.294;6.760;2023-09-18T01:43:19;18.10;99.90
36816;DHT22;71982;52.294;6.760;2023-09-18T01:45:46;18.10;99.90
36816;DHT22;71982;52.294;6.760;2023-09-18T01:48:14;18.10;99.90
36816;DHT22;71982;52.294;6.760;2023-09-18T01:50:48;18.10;99.90
36816;DHT22;71982;52.294;6.760;2023-09-18T01:53:15;18.00;99.90
36816;DHT22;71982;52.294;6.760;2023-09-18T01:55:42;18.00;99.90
36816;DHT22;71982;52.294;6.760;2023-09-18T01:58:11;18.00;99.90
36816;DHT22;71982;52.294;6.760;2023-09-18T02:00:54;17.90;99.90
36816;DHT22;71982;52.294;6.760;2023-09-18T02:03:21;17.90;99.90
36816;DHT22;71982;52.294;6.760;2023-09-18T02:05:48;17.90;99.90
36816;DHT22;71982;52.294;6.760;2023-09-18T02:08:15;17.90;99.90
36816;DHT22;71982;52.294;6.760;2023-09-18T02:10:43;17.90;99.90
36816;DHT22;71982;52.294;6.760;2023-09-18T02:13:12;17.90;99.90
36816;DHT22;71982;52.294;6.760;2023-09-18T02:15:39;17.90;99.90
36816;DHT22;71982;52.294;6.760;2023-09-18T02:18:06;17.90;99.90
36816;DHT22;71982;52.294;6.760;2023-09-18T02:20:40;18.00;99.90
36816;DHT22;71982;52.294;6.760;2023-09-18T02:23:07;18.00;99.90
36816;DHT22;71982;52.294;6.760;2023-09-18T02:25:34;18.10;99.90
36816;DHT22;71982;52.294;6.760;2023-09-18T02:28:01;18.10;99.90
36816;DHT22;71982;52.294;6.760;2023-09-18T02:30:29;18.20;99.90
36816;DHT22;71982;52.294;6.760;2023-09-18T02:32:56;18.20;99.90
36816;DHT22;71982;52.294;6.760;2023-09-18T02:35:23;18.30;99.90
36816;DHT22;71982;52.294;6.760;2023-09-18T02:37:50;18.30;99.90
36816;DHT22;71982;52.294;6.760;2023-09-18T02:40:17;18.40;99.90
36816;DHT22;71982;52.294;6.760;2023-09-18T02:42:44;18.40;99.90
36816;DHT22;71982;52.294;6.760;2023-09-18T02:45:11;18.40;99.90
36816;DHT22;71982;52.294;6.760;2023-09-18T02:47:39;18.50;99.90
36816;DHT22;71982;52.294;6.760;2023-09-18T02:50:07;18.50;99.90
36816;DHT22;71982;52.294;6.760;2023-09-18T02:52:36;18.50;99.90
36816;DHT22;71982;52.294;6.760;2023-09-18T02:55:03;18.50;99.90
36816;DHT22;71982;52.294;6.760;2023-09-18T02:57:30;18.50;99.90
36816;DHT22;71982;52.294;6.760;2023-09-18T02:59:57;18.50;99.90
36816;DHT22;71982;52.294;6.760;2023-09-18T03:02:24;18.50;99.90
36816;DHT22;71982;52.294;6.760;2023-09-18T03:04:52;18.60;99.90
36816;DHT22;71982;52.294;6.760;2023-09-18T03:07:19;18.60;99.90
36816;DHT22;71982;52.294;6.760;2023-09-18T03:09:46;18.60;99.90
36816;DHT22;71982;52.294;6.760;2023-09-18T03:12:12;18.70;99.90
36816;DHT22;71982;52.294;6.760;2023-09-18T03:14:39;18.70;99.90
36816;DHT22;71982;52.294;6.760;2023-09-18T03:17:06;18.70;99.90
36816;DHT22;71982;52.294;6.760;2023-09-18T03:19:33;18.70;99.90
36816;DHT22;71982;52.294;6.760;2023-09-18T03:22:01;18.70;99.90
36816;DHT22;71982;52.294;6.760;2023-09-18T03:24:28;18.60;99.90
36816;DHT22;71982;52.294;6.760;2023-09-18T03:26:55;18.60;99.90
36816;DHT22;71982;52.294;6.760;2023-09-18T03:29:21;18.60;99.90
36816;DHT22;71982;52.294;6.760;2023-09-18T03:31:49;18.60;99.90
36816;DHT22;71982;52.294;6.760;2023-09-18T03:34:15;18.60;99.90
36816;DHT22;71982;52.294;6.760;2023-09-18T03:36:42;18.60;99.90
36816;DHT22;71982;52.294;6.760;2023-09-18T03:39:10;18.60;99.90
36816;DHT22;71982;52.294;6.760;2023-09-18T03:41:38;18.60;99.90
36816;DHT22;71982;52.294;6.760;2023-09-18T03:44:19;18.60;99.90
36816;DHT22;71982;52.294;6.760;2023-09-18T03:46:46;18.60;99.90
36816;DHT22;71982;52.294;6.760;2023-09-18T03:49:13;18.60;99.90
36816;DHT22;71982;52.294;6.760;2023-09-18T03:51:40;18.60;99.90
36816;DHT22;71982;52.294;6.760;2023-09-18T03:54:07;18.60;99.90
36816;DHT22;71982;52.294;6.760;2023-09-18T03:56:35;18.60;99.90
36816;DHT22;71982;52.294;6.760;2023-09-18T03:59:01;18.60;99.90
36816;DHT22;71982;52.294;6.760;2023-09-18T04:01:30;18.60;99.90
36816;DHT22;71982;52.294;6.760;2023-09-18T04:03:57;18.50;99.90
36816;DHT22;71982;52.294;6.760;2023-09-18T04:06:24;18.50;99.90
36816;DHT22;71982;52.294;6.760;2023-09-18T04:08:51;18.60;99.90
36816;DHT22;71982;52.294;6.760;2023-09-18T04:11:18;18.60;99.90
36816;DHT22;71982;52.294;6.760;2023-09-18T04:13:46;18.60;99.90
36816;DHT22;71982;52.294;6.760;2023-09-18T04:16:13;18.60;99.90
36816;DHT22;71982;52.294;6.760;2023-09-18T04:18:42;18.70;99.90
36816;DHT22;71982;52.294;6.760;2023-09-18T04:21:09;18.70;99.90
36816;DHT22;71982;52.294;6.760;2023-09-18T04:23:36;18.70;99.90
36816;DHT22;71982;52.294;6.760;2023-09-18T04:26:03;18.70;99.90
36816;DHT22;71982;52.294;6.760;2023-09-18T04:28:30;18.70;99.90
36816;DHT22;71982;52.294;6.760;2023-09-18T04:30:58;18.70;99.90
36816;DHT22;71982;52.294;6.760;2023-09-18T04:33:25;18.80;99.90
36816;DHT22;71982;52.294;6.760;2023-09-18T04:35:54;18.80;99.90
36816;DHT22;71982;52.294;6.760;2023-09-18T04:38:21;18.90;99.90
36816;DHT22;71982;52.294;6.760;2023-09-18T04:40:49;18.90;99.90
36816;DHT22;71982;52.294;6.760;2023-09-18T04:43:17;19.00;99.90
36816;DHT22;71982;52.294;6.760;2023-09-18T04:45:44;19.00;99.90
36816;DHT22;71982;52.294;6.760;2023-09-18T04:48:12;19.10;99.90
36816;DHT22;71982;52.294;6.760;2023-09-18T04:50:39;19.10;99.90
36816;DHT22;71982;52.294;6.760;2023-09-18T04:53:06;19.20;99.90
36816;DHT22;71982;52.294;6.760;2023-09-18T04:55:34;19.20;99.90
36816;DHT22;71982;52.294;6.760;2023-09-18T04:58:01;19.30;99.90
36816;DHT22;71982;52.294;6.760;2023-09-18T05:00:29;19.30;99.90
36816;DHT22;71982;52.294;6.760;2023-09-18T05:02:57;19.30;99.90
36816;DHT22;71982;52.294;6.760;2023-09-18T05:05:28;19.40;99.90
36816;DHT22;71982;52.294;6.760;2023-09-18T05:07:57;19.30;99.90
36816;DHT22;71982;52.294;6.760;2023-09-18T05:10:24;19.30;99.90
36816;DHT22;71982;52.294;6.760;2023-09-18T05:12:51;19.30;99.90
36816;DHT22;71982;52.294;6.760;2023-09-18T05:15:23;19.30;99.90
36816;DHT22;71982;52.294;6.760;2023-09-18T05:17:52;19.30;99.90
36816;DHT22;71982;52.294;6.760;2023-09-18T05:20:23;19.30;99.90
36816;DHT22;71982;52.294;6.760;2023-09-18T05:22:52;19.40;99.90
36816;DHT22;71982;52.294;6.760;2023-09-18T05:25:19;19.40;99.90
36816;DHT22;71982;52.294;6.760;2023-09-18T05:27:47;19.40;99.90
36816;DHT22;71982;52.294;6.760;2023-09-18T05:30:17;19.50;99.90
36816;DHT22;71982;52.294;6.760;2023-09-18T05:32:46;19.40;99.90
36816;DHT22;71982;52.294;6.760;2023-09-18T05:35:17;19.40;99.90
36816;DHT22;71982;52.294;6.760;2023-09-18T05:37:44;19.50;99.90
36816;DHT22;71982;52.294;6.760;2023-09-18T05:40:13;19.50;99.90
36816;DHT22;71982;52.294;6.760;2023-09-18T05:42:41;19.40;99.90
36816;DHT22;71982;52.294;6.760;2023-09-18T05:45:09;19.40;99.90
36816;DHT22;71982;52.294;6.760;2023-09-18T05:47:36;19.40;99.90
36816;DHT22;71982;52.294;6.760;2023-09-18T05:50:04;19.40;99.90
36816;DHT22;71982;52.294;6.760;2023-09-18T05:52:32;19.30;99.90
36816;DHT22;71982;52.294;6.760;2023-09-18T05:54:59;19.30;99.90
36816;DHT22;71982;52.294;6.760;2023-09-18T05:57:27;19.30;99.90
36816;DHT22;71982;52.294;6.760;2023-09-18T05:59:54;19.30;99.90
36816;DHT22;71982;52.294;6.760;2023-09-18T06:02:21;19.30;99.90
36816;DHT22;71982;52.294;6.760;2023-09-18T06:04:48;19.30;99.90
36816;DHT22;71982;52.294;6.760;2023-09-18T06:07:15;19.30;99.90
36816;DHT22;71982;52.294;6.760;2023-09-18T06:09:42;19.30;99.90
36816;DHT22;71982;52.294;6.760;2023-09-18T06:12:09;19.30;99.90
36816;DHT22;71982;52.294;6.760;2023-09-18T06:14:37;19.30;99.90
36816;DHT22;71982;52.294;6.760;2023-09-18T06:17:04;19.30;99.90
36816;DHT22;71982;52.294;6.760;2023-09-18T06:19:32;19.30;99.90
36816;DHT22;71982;52.294;6.760;2023-09-18T06:22:02;19.40;99.90
36816;DHT22;71982;52.294;6.760;2023-09-18T06:24:29;19.40;99.90
36816;DHT22;71982;52.294;6.760;2023-09-18T06:26:56;19.40;99.90
36816;DHT22;71982;52.294;6.760;2023-09-18T06:29:23;19.40;99.90
36816;DHT22;71982;52.294;6.760;2023-09-18T06:31:54;19.40;99.90
36816;DHT22;71982;52.294;6.760;2023-09-18T06:34:25;19.40;99.90
36816;DHT22;71982;52.294;6.760;2023-09-18T06:37:15;19.40;99.90
36816;DHT22;71982;52.294;6.760;2023-09-18T06:39:43;19.40;99.90
36816;DHT22;71982;52.294;6.760;2023-09-18T06:42:10;19.40;99.90
36816;DHT22;71982;52.294;6.760;2023-09-18T06:44:38;19.40;99.90
36816;DHT22;71982;52.294;6.760;2023-09-18T06:47:06;19.40;99.90
36816;DHT22;71982;52.294;6.760;2023-09-18T06:49:33;19.40;99.90
36816;DHT22;71982;52.294;6.760;2023-09-18T06:52:00;19.40;99.90
36816;DHT22;71982;52.294;6.760;2023-09-18T06:54:27;19.40;99.90
36816;DHT22;71982;52.294;6.760;2023-09-18T06:56:54;19.40;99.90
36816;DHT22;71982;52.294;6.760;2023-09-18T06:59:22;19.50;99.90
36816;DHT22;71982;52.294;6.760;2023-09-18T07:02:07;19.50;99.90
36816;DHT22;71982;52.294;6.760;2023-09-18T07:04:34;19.50;99.90
36816;DHT22;71982;52.294;6.760;2023-09-18T07:07:01;19.60;99.90
36816;DHT22;71982;52.294;6.760;2023-09-18T07:09:28;19.60;99.90
36816;DHT22;71982;52.294;6.760;2023-09-18T07:11:56;19.70;99.90
36816;DHT22;71982;52.294;6.760;2023-09-18T07:14:22;19.70;99.90
36816;DHT22;71982;52.294;6.760;2023-09-18T07:16:49;19.70;99.90
36816;DHT22;71982;52.294;6.760;2023-09-18T07:19:18;19.70;99.90
36816;DHT22;71982;52.294;6.760;2023-09-18T07:21:44;19.70;99.90
36816;DHT22;71982;52.294;6.760;2023-09-18T07:24:11;19.70;99.90
36816;DHT22;71982;52.294;6.760;2023-09-18T07:26:44;19.70;99.90
36816;DHT22;71982;52.294;6.760;2023-09-18T07:29:12;19.70;99.90
36816;DHT22;71982;52.294;6.760;2023-09-18T07:31:40;19.80;99.90
36816;DHT22;71982;52.294;6.760;2023-09-18T07:34:07;19.80;99.90
36816;DHT22;71982;52.294;6.760;2023-09-18T07:36:36;19.80;99.90
36816;DHT22;71982;52.294;6.760;2023-09-18T07:39:03;19.90;99.90
36816;DHT22;71982;52.294;6.760;2023-09-18T07:41:31;20.00;99.90
36816;DHT22;71982;52.294;6.760;2023-09-18T07:43:58;20.10;99.90
36816;DHT22;71982;52.294;6.760;2023-09-18T07:46:25;20.20;99.90
36816;DHT22;71982;52.294;6.760;2023-09-18T07:48:52;20.20;99.90
36816;DHT22;71982;52.294;6.760;2023-09-18T07:51:19;20.30;99.90
36816;DHT22;71982;52.294;6.760;2023-09-18T07:53:47;20.40;99.90
36816;DHT22;71982;52.294;6.760;2023-09-18T07:56:15;20.50;99.90
36816;DHT22;71982;52.294;6.760;2023-09-18T07:58:42;20.50;99.90
36816;DHT22;71982;52.294;6.760;2023-09-18T08:01:09;20.60;99.90
36816;DHT22;71982;52.294;6.760;2023-09-18T08:03:36;20.60;99.90
36816;DHT22;71982;52.294;6.760;2023-09-18T08:06:02;20.60;99.90
36816;DHT22;71982;52.294;6.760;2023-09-18T08:08:31;20.60;99.90
36816;DHT22;71982;52.294;6.760;2023-09-18T08:11:06;20.60;99.90
36816;DHT22;71982;52.294;6.760;2023-09-18T08:13:35;20.50;99.90
36816;DHT22;71982;52.294;6.760;2023-09-18T08:16:02;20.50;99.90
36816;DHT22;71982;52.294;6.760;2023-09-18T08:18:29;20.40;99.90
36816;DHT22;71982;52.294;6.760;2023-09-18T08:20:56;20.50;99.90
36816;DHT22;71982;52.294;6.760;2023-09-18T08:23:24;20.60;99.90
36816;DHT22;71982;52.294;6.760;2023-09-18T08:25:51;20.70;99.90
36816;DHT22;71982;52.294;6.760;2023-09-18T08:28:22;20.80;99.90
36816;DHT22;71982;52.294;6.760;2023-09-18T08:30:49;20.90;99.90
36816;DHT22;71982;52.294;6.760;2023-09-18T08:33:16;20.90;99.90
36816;DHT22;71982;52.294;6.760;2023-09-18T08:35:44;20.90;99.90
36816;DHT22;71982;52.294;6.760;2023-09-18T08:38:12;20.90;99.90
36816;DHT22;71982;52.294;6.760;2023-09-18T08:40:40;21.10;99.90
36816;DHT22;71982;52.294;6.760;2023-09-18T08:43:07;21.10;99.90
36816;DHT22;71982;52.294;6.760;2023-09-18T08:45:43;21.20;99.90
36816;DHT22;71982;52.294;6.760;2023-09-18T08:48:12;21.30;99.90
36816;DHT22;71982;52.294;6.760;2023-09-18T08:50:40;21.20;99.90
36816;DHT22;71982;52.294;6.760;2023-09-18T08:53:08;21.40;99.90
36816;DHT22;71982;52.294;6.760;2023-09-18T08:55:35;21.50;99.90
36816;DHT22;71982;52.294;6.760;2023-09-18T08:58:02;21.40;99.90
36816;DHT22;71982;52.294;6.760;2023-09-18T09:00:29;21.30;99.90
36816;DHT22;71982;52.294;6.760;2023-09-18T09:02:57;21.40;99.90
36816;DHT22;71982;52.294;6.760;2023-09-18T09:05:24;21.50;99.90
36816;DHT22;71982;52.294;6.760;2023-09-18T09:07:51;21.70;99.90
36816;DHT22;71982;52.294;6.760;2023-09-18T09:10:18;21.80;99.90
36816;DHT22;71982;52.294;6.760;2023-09-18T09:12:52;21.90;99.90
36816;DHT22;71982;52.294;6.760;2023-09-18T09:15:20;21.90;99.90
36816;DHT22;71982;52.294;6.760;2023-09-18T09:17:49;21.70;99.90
36816;DHT22;71982;52.294;6.760;2023-09-18T09:20:17;21.70;99.90
36816;DHT22;71982;52.294;6.760;2023-09-18T09:22:45;21.70;99.90
36816;DHT22;71982;52.294;6.760;2023-09-18T09:25:26;21.70;99.90
36816;DHT22;71982;52.294;6.760;2023-09-18T09:27:54;21.90;99.90
36816;DHT22;71982;52.294;6.760;2023-09-18T09:30:23;22.00;99.90
36816;DHT22;71982;52.294;6.760;2023-09-18T09:32:51;21.70;99.90
36816;DHT22;71982;52.294;6.760;2023-09-18T09:35:25;21.70;99.90
36816;DHT22;71982;52.294;6.760;2023-09-18T09:37:55;22.00;99.90
36816;DHT22;71982;52.294;6.760;2023-09-18T09:40:23;22.20;99.90
36816;DHT22;71982;52.294;6.760;2023-09-18T09:42:57;22.20;99.90
36816;DHT22;71982;52.294;6.760;2023-09-18T09:45:28;22.10;99.90
36816;DHT22;71982;52.294;6.760;2023-09-18T09:47:57;22.00;99.90
36816;DHT22;71982;52.294;6.760;2023-09-18T09:50:25;22.00;99.90
36816;DHT22;71982;52.294;6.760;2023-09-18T09:52:54;22.00;99.90
36816;DHT22;71982;52.294;6.760;2023-09-18T09:55:23;22.10;99.90
36816;DHT22;71982;52.294;6.760;2023-09-18T09:57:53;22.00;99.90
36816;DHT22;71982;52.294;6.760;2023-09-18T10:00:23;22.00;99.90
36816;DHT22;71982;52.294;6.760;2023-09-18T10:03:00;22.10;99.90
36816;DHT22;71982;52.294;6.760;2023-09-18T10:05:30;22.00;99.90
36816;DHT22;71982;52.294;6.760;2023-09-18T10:07:59;22.10;99.90
36816;DHT22;71982;52.294;6.760;2023-09-18T10:10:31;22.30;99.90
36816;DHT22;71982;52.294;6.760;2023-09-18T10:13:07;22.20;99.90
36816;DHT22;71982;52.294;6.760;2023-09-18T10:15:37;22.30;99.90
36816;DHT22;71982;52.294;6.760;2023-09-18T10:18:07;22.50;99.90
36816;DHT22;71982;52.294;6.760;2023-09-18T10:20:46;22.70;99.90
36816;DHT22;71982;52.294;6.760;2023-09-18T10:23:21;22.40;99.90
36816;DHT22;71982;52.294;6.760;2023-09-18T10:25:52;22.50;99.90
36816;DHT22;71982;52.294;6.760;2023-09-18T10:28:21;22.50;99.90
36816;DHT22;71982;52.294;6.760;2023-09-18T10:30:52;22.40;99.90
36816;DHT22;71982;52.294;6.760;2023-09-18T10:33:19;22.50;99.90
36816;DHT22;71982;52.294;6.760;2023-09-18T10:35:51;22.80;99.90
36816;DHT22;71982;52.294;6.760;2023-09-18T10:38:18;22.90;99.90
36816;DHT22;71982;52.294;6.760;2023-09-18T10:40:47;23.00;99.90
36816;DHT22;71982;52.294;6.760;2023-09-18T10:43:16;23.20;99.90
36816;DHT22;71982;52.294;6.760;2023-09-18T10:45:44;23.60;99.90
36816;DHT22;71982;52.294;6.760;2023-09-18T10:48:12;23.70;99.90
36816;DHT22;71982;52.294;6.760;2023-09-18T10:50:43;23.60;99.90
36816;DHT22;71982;52.294;6.760;2023-09-18T10:53:13;23.60;99.90
36816;DHT22;71982;52.294;6.760;2023-09-18T10:55:41;23.80;99.90
36816;DHT22;71982;52.294;6.760;2023-09-18T10:58:08;23.50;99.90
36816;DHT22;71982;52.294;6.760;2023-09-18T11:00:36;23.30;99.90
36816;DHT22;71982;52.294;6.760;2023-09-18T11:03:11;23.10;99.90
36816;DHT22;71982;52.294;6.760;2023-09-18T11:05:39;23.50;99.90
36816;DHT22;71982;52.294;6.760;2023-09-18T11:08:27;23.60;99.90
36816;DHT22;71982;52.294;6.760;2023-09-18T11:11:02;23.50;99.90
36816;DHT22;71982;52.294;6.760;2023-09-18T11:13:40;24.00;99.90
36816;DHT22;71982;52.294;6.760;2023-09-18T11:16:16;24.00;99.90
36816;DHT22;71982;52.294;6.760;2023-09-18T11:18:47;24.40;99.90
36816;DHT22;71982;52.294;6.760;2023-09-18T11:21:15;24.10;99.90
36816;DHT22;71982;52.294;6.760;2023-09-18T11:23:46;23.70;99.90
36816;DHT22;71982;52.294;6.760;2023-09-18T11:26:15;24.10;99.90
36816;DHT22;71982;52.294;6.760;2023-09-18T11:28:42;24.30;99.90
36816;DHT22;71982;52.294;6.760;2023-09-18T11:31:11;24.40;99.90
36816;DHT22;71982;52.294;6.760;2023-09-18T11:33:41;24.40;99.90
36816;DHT22;71982;52.294;6.760;2023-09-18T11:36:12;24.10;99.90
36816;DHT22;71982;52.294;6.760;2023-09-18T11:38:55;23.70;99.90
36816;DHT22;71982;52.294;6.760;2023-09-18T11:41:25;23.50;99.90
36816;DHT22;71982;52.294;6.760;2023-09-18T11:43:53;24.20;99.90
36816;DHT22;71982;52.294;6.760;2023-09-18T11:46:48;24.40;99.90
36816;DHT22;71982;52.294;6.760;2023-09-18T11:49:21;25.00;99.90
36816;DHT22;71982;52.294;6.760;2023-09-18T11:51:50;25.80;99.90
36816;DHT22;71982;52.294;6.760;2023-09-18T11:54:19;26.80;99.90
36816;DHT22;71982;52.294;6.760;2023-09-18T11:56:46;26.70;99.90
36816;DHT22;71982;52.294;6.760;2023-09-18T11:59:13;26.00;99.90
36816;DHT22;71982;52.294;6.760;2023-09-18T12:01:40;25.00;99.90
36816;DHT22;71982;52.294;6.760;2023-09-18T12:04:12;24.30;99.90
36816;DHT22;71982;52.294;6.760;2023-09-18T12:06:40;23.80;99.90
36816;DHT22;71982;52.294;6.760;2023-09-18T12:09:29;23.40;99.90
36816;DHT22;71982;52.294;6.760;2023-09-18T12:12:07;23.40;99.90
36816;DHT22;71982;52.294;6.760;2023-09-18T12:14:36;23.40;99.90
36816;DHT22;71982;52.294;6.760;2023-09-18T12:17:14;23.60;99.90
36816;DHT22;71982;52.294;6.760;2023-09-18T12:19:59;24.20;99.90
36816;DHT22;71982;52.294;6.760;2023-09-18T12:22:26;25.40;99.90
36816;DHT22;71982;52.294;6.760;2023-09-18T12:25:11;25.70;99.90
36816;DHT22;71982;52.294;6.760;2023-09-18T12:27:39;26.20;99.90
36816;DHT22;71982;52.294;6.760;2023-09-18T12:30:08;27.50;99.90
36816;DHT22;71982;52.294;6.760;2023-09-18T12:32:36;28.50;99.90
36816;DHT22;71982;52.294;6.760;2023-09-18T12:35:07;28.70;99.90
36816;DHT22;71982;52.294;6.760;2023-09-18T12:37:35;28.30;99.90
36816;DHT22;71982;52.294;6.760;2023-09-18T12:40:06;28.50;99.90
36816;DHT22;71982;52.294;6.760;2023-09-18T12:42:38;28.70;99.90
36816;DHT22;71982;52.294;6.760;2023-09-18T12:45:07;29.40;99.80
36816;DHT22;71982;52.294;6.760;2023-09-18T12:47:35;30.10;98.70
36816;DHT22;71982;52.294;6.760;2023-09-18T12:50:05;29.60;99.00
36816;DHT22;71982;52.294;6.760;2023-09-18T12:52:33;28.40;99.80
36816;DHT22;71982;52.294;6.760;2023-09-18T12:55:03;26.70;99.90
36816;DHT22;71982;52.294;6.760;2023-09-18T12:57:34;25.80;99.90
36816;DHT22;71982;52.294;6.760;2023-09-18T13:00:10;25.00;99.90
36816;DHT22;71982;52.294;6.760;2023-09-18T13:02:38;24.70;99.90
36816;DHT22;71982;52.294;6.760;2023-09-18T13:05:06;24.20;99.90
36816;DHT22;71982;52.294;6.760;2023-09-18T13:07:43;23.80;99.90
36816;DHT22;71982;52.294;6.760;2023-09-18T13:10:11;23.70;99.90
36816;DHT22;71982;52.294;6.760;2023-09-18T13:12:42;23.50;99.90
36816;DHT22;71982;52.294;6.760;2023-09-18T13:15:13;23.10;99.90
36816;DHT22;71982;52.294;6.760;2023-09-18T13:17:41;22.40;99.90
36816;DHT22;71982;52.294;6.760;2023-09-18T13:20:14;21.60;99.90
36816;DHT22;71982;52.294;6.760;2023-09-18T13:22:42;21.30;99.90
36816;DHT22;71982;52.294;6.760;2023-09-18T13:25:09;22.10;99.90
36816;DHT22;71982;52.294;6.760;2023-09-18T13:27:37;23.50;99.90
36816;DHT22;71982;52.294;6.760;2023-09-18T13:30:06;24.40;99.90
36816;DHT22;71982;52.294;6.760;2023-09-18T13:32:40;26.00;99.90
36816;DHT22;71982;52.294;6.760;2023-09-18T13:35:07;26.60;99.90
36816;DHT22;71982;52.294;6.760;2023-09-18T13:37:34;28.00;99.90
36816;DHT22;71982;52.294;6.760;2023-09-18T13:40:01;28.80;99.90
36816;DHT22;71982;52.294;6.760;2023-09-18T13:42:32;28.50;99.90
36816;DHT22;71982;52.294;6.760;2023-09-18T13:44:59;28.70;99.90
36816;DHT22;71982;52.294;6.760;2023-09-18T13:47:37;29.00;99.90
36816;DHT22;71982;52.294;6.760;2023-09-18T13:50:05;29.10;99.90
36816;DHT22;71982;52.294;6.760;2023-09-18T13:52:33;29.50;99.90
36816;DHT22;71982;52.294;6.760;2023-09-18T13:55:01;29.30;99.90
36816;DHT22;71982;52.294;6.760;2023-09-18T13:57:30;29.40;99.90
36816;DHT22;71982;52.294;6.760;2023-09-18T13:59:59;29.40;99.90
36816;DHT22;71982;52.294;6.760;2023-09-18T14:02:32;30.10;99.90
36816;DHT22;71982;52.294;6.760;2023-09-18T14:05:01;30.00;99.40
36816;DHT22;71982;52.294;6.760;2023-09-18T14:07:29;29.20;99.60
36816;DHT22;71982;52.294;6.760;2023-09-18T14:09:55;28.00;99.90
36816;DHT22;71982;52.294;6.760;2023-09-18T14:12:23;26.50;99.90
36816;DHT22;71982;52.294;6.760;2023-09-18T14:14:50;25.70;99.90
36816;DHT22;71982;52.294;6.760;2023-09-18T14:17:17;25.20;99.90
36816;DHT22;71982;52.294;6.760;2023-09-18T14:19:47;25.50;99.90
36816;DHT22;71982;52.294;6.760;2023-09-18T14:22:15;26.00;99.90
36816;DHT22;71982;52.294;6.760;2023-09-18T14:24:42;27.40;99.90
36816;DHT22;71982;52.294;6.760;2023-09-18T14:27:09;28.00;99.90
36816;DHT22;71982;52.294;6.760;2023-09-18T14:29:38;28.30;99.90
36816;DHT22;71982;52.294;6.760;2023-09-18T14:32:05;28.90;99.90
36816;DHT22;71982;52.294;6.760;2023-09-18T14:34:33;28.70;99.90
36816;DHT22;71982;52.294;6.760;2023-09-18T14:37:01;27.70;99.60
36816;DHT22;71982;52.294;6.760;2023-09-18T14:39:30;28.20;99.90
36816;DHT22;71982;52.294;6.760;2023-09-18T14:41:58;29.00;99.80
36816;DHT22;71982;52.294;6.760;2023-09-18T14:44:25;29.60;98.00
36816;DHT22;71982;52.294;6.760;2023-09-18T14:46:53;30.30;97.00
36816;DHT22;71982;52.294;6.760;2023-09-18T14:49:20;29.40;97.40
36816;DHT22;71982;52.294;6.760;2023-09-18T14:51:46;29.40;97.60
36816;DHT22;71982;52.294;6.760;2023-09-18T14:54:15;29.50;97.30
36816;DHT22;71982;52.294;6.760;2023-09-18T14:56:43;29.30;97.20
36816;DHT22;71982;52.294;6.760;2023-09-18T14:59:11;29.50;97.30
36816;DHT22;71982;52.294;6.760;2023-09-18T15:01:38;29.80;97.70
36816;DHT22;71982;52.294;6.760;2023-09-18T15:04:08;29.80;97.60
36816;DHT22;71982;52.294;6.760;2023-09-18T15:06:35;29.90;97.10
36816;DHT22;71982;52.294;6.760;2023-09-18T15:09:02;30.10;97.40
36816;DHT22;71982;52.294;6.760;2023-09-18T15:11:29;29.20;97.60
36816;DHT22;71982;52.294;6.760;2023-09-18T15:13:57;27.80;99.90
36816;DHT22;71982;52.294;6.760;2023-09-18T15:16:24;27.00;99.40
36816;DHT22;71982;52.294;6.760;2023-09-18T15:18:52;26.10;99.90
36816;DHT22;71982;52.294;6.760;2023-09-18T15:21:19;25.30;99.90
36816;DHT22;71982;52.294;6.760;2023-09-18T15:23:46;25.10;99.90
36816;DHT22;71982;52.294;6.760;2023-09-18T15:26:15;24.80;99.90
36816;DHT22;71982;52.294;6.760;2023-09-18T15:28:43;24.70;99.90
36816;DHT22;71982;52.294;6.760;2023-09-18T15:31:11;24.50;99.90
36816;DHT22;71982;52.294;6.760;2023-09-18T15:33:38;24.40;99.90
36816;DHT22;71982;52.294;6.760;2023-09-18T15:36:06;24.30;99.90
36816;DHT22;71982;52.294;6.760;2023-09-18T15:38:33;24.20;99.90
36816;DHT22;71982;52.294;6.760;2023-09-18T15:41:00;24.00;99.90